createdAt,value
2019-01-27T00:00:43.114Z,31.04
2019-01-27T00:01:52.644Z,31.04
2019-01-27T00:03:01.648Z,31.14
2019-01-27T00:04:10.892Z,31.04
2019-01-27T00:05:21.783Z,31.14
2019-01-27T00:06:31.415Z,31.04
2019-01-27T00:07:40.912Z,31.04
2019-01-27T00:08:50.653Z,31.04
2019-01-27T00:10:00.480Z,31.14
2019-01-27T00:11:10.220Z,31.04
2019-01-27T00:12:19.482Z,31.14
2019-01-27T00:13:28.510Z,31.14
2019-01-27T00:14:37.514Z,31.14
2019-01-27T00:15:46.530Z,31.14
2019-01-27T00:16:56.037Z,31.04
2019-01-27T00:18:05.031Z,31.04
2019-01-27T00:19:14.033Z,31.14
2019-01-27T00:20:23.036Z,31.24
2019-01-27T00:21:32.606Z,31.14
2019-01-27T00:22:41.856Z,31.04
2019-01-27T00:23:51.134Z,31.24
2019-01-27T00:25:00.690Z,31.12
2019-01-27T00:26:10.186Z,31.12
2019-01-27T00:27:19.198Z,31.14
2019-01-27T00:28:28.689Z,31.14
2019-01-27T00:29:37.707Z,31.22
2019-01-27T00:30:46.983Z,31.22
2019-01-27T00:31:56.551Z,31.03
2019-01-27T00:33:06.308Z,31.12
2019-01-27T00:34:15.813Z,31.22
2019-01-27T00:35:25.202Z,31.22
2019-01-27T00:36:34.052Z,31.22
2019-01-27T00:37:43.570Z,31.03
2019-01-27T00:38:52.902Z,31.12
2019-01-27T00:40:02.302Z,31.12
2019-01-27T00:41:11.857Z,31.12
2019-01-27T00:42:21.382Z,31.03
2019-01-27T00:43:30.894Z,31.12
2019-01-27T00:44:40.102Z,31.22
2019-01-27T00:45:49.963Z,31.22
2019-01-27T00:46:59.053Z,31.12
2019-01-27T00:48:08.407Z,31.03
2019-01-27T00:49:17.439Z,31.12
2019-01-27T00:50:27.369Z,31.03
2019-01-27T00:51:36.995Z,31.03
2019-01-27T00:52:46.318Z,31.12
2019-01-27T00:53:55.973Z,31.12
2019-01-27T00:55:05.657Z,31.22
2019-01-27T00:56:15.065Z,31.12
2019-01-27T00:57:24.469Z,31.03
2019-01-27T00:58:34.088Z,31.12
2019-01-27T00:59:43.194Z,31.12
2019-01-27T01:00:51.998Z,31.03
2019-01-27T01:02:01.823Z,30.93
2019-01-27T01:03:11.200Z,31.03
2019-01-27T01:04:20.306Z,30.93
2019-01-27T01:05:30.022Z,31.03
2019-01-27T01:06:39.369Z,31.22
2019-01-27T01:07:50.218Z,31.03
2019-01-27T01:08:59.656Z,30.93
2019-01-27T01:10:09.669Z,31.03
2019-01-27T01:11:18.786Z,30.93
2019-01-27T01:12:28.153Z,31.12
2019-01-27T01:13:37.741Z,30.93
2019-01-27T01:14:46.897Z,31.03
2019-01-27T01:15:56.514Z,30.93
2019-01-27T01:17:05.609Z,30.93
2019-01-27T01:18:14.436Z,30.93
2019-01-27T01:19:23.786Z,30.93
2019-01-27T01:20:33.120Z,31.03
2019-01-27T01:21:42.452Z,31.03
2019-01-27T01:22:52.146Z,30.93
2019-01-27T01:24:01.193Z,30.93
2019-01-27T01:25:10.287Z,31.01
2019-01-27T01:26:19.358Z,31.01
2019-01-27T01:27:28.556Z,30.91
2019-01-27T01:28:37.891Z,30.93
2019-01-27T01:29:47.789Z,31.01
2019-01-27T01:30:56.532Z,31.01
2019-01-27T01:32:05.417Z,31.03
2019-01-27T01:33:14.566Z,30.91
2019-01-27T01:34:24.257Z,31.01
2019-01-27T01:35:33.624Z,31.03
2019-01-27T01:36:42.790Z,31.01
2019-01-27T01:37:52.376Z,31.01
2019-01-27T01:39:01.398Z,31.11
2019-01-27T01:40:11.030Z,31.01
2019-01-27T01:41:20.355Z,31.01
2019-01-27T01:42:29.394Z,31.01
2019-01-27T01:43:38.187Z,31.01
2019-01-27T01:44:47.267Z,31.01
2019-01-27T01:45:56.532Z,31.11
2019-01-27T01:47:05.723Z,30.82
2019-01-27T01:48:15.003Z,31.01
2019-01-27T01:49:24.562Z,31.01
2019-01-27T01:50:33.662Z,30.91
2019-01-27T01:51:42.975Z,31.11
2019-01-27T01:52:52.101Z,31.01
2019-01-27T01:54:00.956Z,31.01
2019-01-27T01:55:10.389Z,30.91
2019-01-27T01:56:19.762Z,31.01
2019-01-27T01:57:28.937Z,30.91
2019-01-27T01:58:38.290Z,31.01
2019-01-27T01:59:47.435Z,31.01
2019-01-27T02:00:56.800Z,31.01
2019-01-27T02:02:06.670Z,31.01
2019-01-27T02:03:15.999Z,31.01
2019-01-27T02:04:25.298Z,30.91
2019-01-27T02:05:34.540Z,31.01
2019-01-27T02:06:44.107Z,31.01
2019-01-27T02:07:53.150Z,30.91
2019-01-27T02:09:02.330Z,30.91
2019-01-27T02:10:11.743Z,30.91
2019-01-27T02:11:21.663Z,30.91
2019-01-27T02:12:31.295Z,31.01
2019-01-27T02:13:40.605Z,30.91
2019-01-27T02:14:49.454Z,30.91
2019-01-27T02:15:58.753Z,31.11
2019-01-27T02:17:07.953Z,30.82
2019-01-27T02:18:17.506Z,30.91
2019-01-27T02:19:26.937Z,31.01
2019-01-27T02:20:36.080Z,31.01
2019-01-27T02:21:45.625Z,31.01
2019-01-27T02:22:54.408Z,31.01
2019-01-27T02:24:03.815Z,31.01
2019-01-27T02:25:13.642Z,31.01
2019-01-27T02:26:22.923Z,31.01
2019-01-27T02:27:32.447Z,31.11
2019-01-27T02:28:41.261Z,30.91
2019-01-27T02:29:50.842Z,31.11
2019-01-27T02:31:00.160Z,31.21
2019-01-27T02:32:09.705Z,31.11
2019-01-27T02:33:18.532Z,31.11
2019-01-27T02:34:28.118Z,31.11
2019-01-27T02:35:37.746Z,31.01
2019-01-27T02:36:47.355Z,31.21
2019-01-27T02:37:56.471Z,31.01
2019-01-27T02:39:06.123Z,31.21
2019-01-27T02:40:15.567Z,31.11
2019-01-27T02:41:24.630Z,31.11
2019-01-27T02:42:33.639Z,31.21
2019-01-27T02:43:43.018Z,31.01
2019-01-27T02:44:52.661Z,31.01
2019-01-27T02:46:02.297Z,31.01
2019-01-27T02:47:11.638Z,31.11
2019-01-27T02:48:20.869Z,31.01
2019-01-27T02:49:29.960Z,31.21
2019-01-27T02:50:39.852Z,31.21
2019-01-27T02:51:49.503Z,31.01
2019-01-27T02:52:58.794Z,31.01
2019-01-27T02:54:08.617Z,31.11
2019-01-27T02:55:17.721Z,31.01
2019-01-27T02:56:26.771Z,31.11
2019-01-27T02:57:36.371Z,31.21
2019-01-27T02:58:45.434Z,31.09
2019-01-27T02:59:55.047Z,31.11
2019-01-27T03:01:04.923Z,31.19
2019-01-27T03:02:14.830Z,31.01
2019-01-27T03:03:24.044Z,31.3
2019-01-27T03:04:33.816Z,31.09
2019-01-27T03:05:43.132Z,31.19
2019-01-27T03:06:52.265Z,31.09
2019-01-27T03:08:01.858Z,31.09
2019-01-27T03:09:11.372Z,31.19
2019-01-27T03:10:20.189Z,31.09
2019-01-27T03:11:29.291Z,31.09
2019-01-27T03:12:38.337Z,31.19
2019-01-27T03:13:47.440Z,31.19
2019-01-27T03:14:56.705Z,31.09
2019-01-27T03:16:06.243Z,31.09
2019-01-27T03:17:15.560Z,31.19
2019-01-27T03:18:25.079Z,31.19
2019-01-27T03:19:34.428Z,31.19
2019-01-27T03:20:44.058Z,31.19
2019-01-27T03:21:53.958Z,31.19
2019-01-27T03:23:03.573Z,31.19
2019-01-27T03:24:12.898Z,31.19
2019-01-27T03:25:22.031Z,31.19
2019-01-27T03:26:31.103Z,31.29
2019-01-27T03:27:40.155Z,31.29
2019-01-27T03:28:49.709Z,31.29
2019-01-27T03:29:59.142Z,31.29
2019-01-27T03:31:08.744Z,31.19
2019-01-27T03:32:18.208Z,31.29
2019-01-27T03:33:28.172Z,31.29
2019-01-27T03:34:37.853Z,31.29
2019-01-27T03:35:46.679Z,31.19
2019-01-27T03:36:56.341Z,31.29
2019-01-27T03:38:05.163Z,31.19
2019-01-27T03:39:14.711Z,31.19
2019-01-27T03:40:23.993Z,31.29
2019-01-27T03:41:33.348Z,31.19
2019-01-27T03:42:42.942Z,31.29
2019-01-27T03:43:52.204Z,31.19
2019-01-27T03:45:01.610Z,31.29
2019-01-27T03:46:10.753Z,31.19
2019-01-27T03:47:20.286Z,31.29
2019-01-27T03:48:29.606Z,31.29
2019-01-27T03:49:39.184Z,31.29
2019-01-27T03:50:48.104Z,31.29
2019-01-27T03:51:57.536Z,31.29
2019-01-27T03:53:07.347Z,31.19
2019-01-27T03:54:16.384Z,31.19
2019-01-27T03:55:25.516Z,31.19
2019-01-27T03:56:34.869Z,31.19
2019-01-27T03:57:44.226Z,31.19
2019-01-27T03:58:54.099Z,31.19
2019-01-27T04:00:03.621Z,31.19
2019-01-27T04:01:13.181Z,31.38
2019-01-27T04:02:22.239Z,31.19
2019-01-27T04:03:31.759Z,31.09
2019-01-27T04:04:41.293Z,31.19
2019-01-27T04:05:50.563Z,31.19
2019-01-27T04:06:59.889Z,31.19
2019-01-27T04:08:08.902Z,31.19
2019-01-27T04:09:18.484Z,31.19
2019-01-27T04:10:27.792Z,31.29
2019-01-27T04:11:37.426Z,31.19
2019-01-27T04:12:47.318Z,31.19
2019-01-27T04:13:56.867Z,31.19
2019-01-27T04:15:06.696Z,31.19
2019-01-27T04:16:16.237Z,31.19
2019-01-27T04:17:26.018Z,31.19
2019-01-27T04:18:35.630Z,31.19
2019-01-27T04:19:44.668Z,31.38
2019-01-27T04:20:53.954Z,31.19
2019-01-27T04:22:03.403Z,31.19
2019-01-27T04:23:12.428Z,31.19
2019-01-27T04:24:21.764Z,31.19
2019-01-27T04:25:31.067Z,31.19
2019-01-27T04:26:39.899Z,31.09
2019-01-27T04:27:49.197Z,31.19
2019-01-27T04:28:58.735Z,31.19
2019-01-27T04:30:08.322Z,31.19
2019-01-27T04:31:17.822Z,31.09
2019-01-27T04:32:27.327Z,31.19
2019-01-27T04:33:37.790Z,31.19
2019-01-27T04:34:47.643Z,31.29
2019-01-27T04:35:56.760Z,31.19
2019-01-27T04:37:05.772Z,31.19
2019-01-27T04:38:14.616Z,31.29
2019-01-27T04:39:23.936Z,31.09
2019-01-27T04:40:33.558Z,31.19
2019-01-27T04:41:42.960Z,31.38
2019-01-27T04:42:52.098Z,31.38
2019-01-27T04:44:01.937Z,31.29
2019-01-27T04:45:11.572Z,31.09
2019-01-27T04:46:21.019Z,31.38
2019-01-27T04:47:30.144Z,31.29
2019-01-27T04:48:39.569Z,31.38
2019-01-27T04:49:48.930Z,31.38
2019-01-27T04:50:58.298Z,31.29
2019-01-27T04:52:07.421Z,31.29
2019-01-27T04:53:17.035Z,31.38
2019-01-27T04:54:26.916Z,31.38
2019-01-27T04:55:36.385Z,31.38
2019-01-27T04:56:46.054Z,31.48
2019-01-27T04:57:55.706Z,31.38
2019-01-27T04:59:05.107Z,31.38
2019-01-27T05:00:14.840Z,31.38
2019-01-27T05:01:24.683Z,31.38
2019-01-27T05:02:33.776Z,31.37
2019-01-27T05:03:43.420Z,31.38
2019-01-27T05:04:52.757Z,31.48
2019-01-27T05:06:02.120Z,31.38
2019-01-27T05:07:11.418Z,31.46
2019-01-27T05:08:20.492Z,31.48
2019-01-27T05:09:29.857Z,31.27
2019-01-27T05:10:39.412Z,31.37
2019-01-27T05:11:48.964Z,31.38
2019-01-27T05:12:58.550Z,31.48
2019-01-27T05:14:07.698Z,31.37
2019-01-27T05:15:17.098Z,31.27
2019-01-27T05:16:26.341Z,31.37
2019-01-27T05:17:35.682Z,31.46
2019-01-27T05:18:45.078Z,31.37
2019-01-27T05:19:54.709Z,31.46
2019-01-27T05:21:04.653Z,31.37
2019-01-27T05:22:14.196Z,31.46
2019-01-27T05:23:23.553Z,31.46
2019-01-27T05:24:32.913Z,31.37
2019-01-27T05:25:42.945Z,31.46
2019-01-27T05:26:52.616Z,31.46
2019-01-27T05:28:02.150Z,31.37
2019-01-27T05:29:11.278Z,31.37
2019-01-27T05:30:21.202Z,31.38
2019-01-27T05:31:30.732Z,31.46
2019-01-27T05:32:40.190Z,31.27
2019-01-27T05:33:49.920Z,31.37
2019-01-27T05:34:59.121Z,31.46
2019-01-27T05:36:08.691Z,31.37
2019-01-27T05:37:18.792Z,31.37
2019-01-27T05:38:27.901Z,31.56
2019-01-27T05:39:37.538Z,31.37
2019-01-27T05:40:46.863Z,31.37
2019-01-27T05:41:56.078Z,31.46
2019-01-27T05:43:05.642Z,31.46
2019-01-27T05:44:15.527Z,31.46
2019-01-27T05:45:24.576Z,31.46
2019-01-27T05:46:33.844Z,31.46
2019-01-27T05:47:43.228Z,31.46
2019-01-27T05:48:53.442Z,31.46
2019-01-27T05:50:02.729Z,31.37
2019-01-27T05:51:12.050Z,31.46
2019-01-27T05:52:22.410Z,31.46
2019-01-27T05:53:31.713Z,31.56
2019-01-27T05:54:41.325Z,31.46
2019-01-27T05:55:50.752Z,31.46
2019-01-27T05:57:00.409Z,31.46
2019-01-27T05:58:09.785Z,31.46
2019-01-27T05:59:19.146Z,31.56
2019-01-27T06:00:28.572Z,31.46
2019-01-27T06:01:37.612Z,31.56
2019-01-27T06:02:46.606Z,31.56
2019-01-27T06:03:55.655Z,31.46
2019-01-27T06:05:04.440Z,31.56
2019-01-27T06:06:14.004Z,31.56
2019-01-27T06:07:23.606Z,31.37
2019-01-27T06:08:33.739Z,31.46
2019-01-27T06:09:43.490Z,31.37
2019-01-27T06:10:53.244Z,31.37
2019-01-27T06:12:02.876Z,31.37
2019-01-27T06:13:12.389Z,31.37
2019-01-27T06:14:21.507Z,31.56
2019-01-27T06:15:30.820Z,31.56
2019-01-27T06:16:39.974Z,31.46
2019-01-27T06:17:49.416Z,31.46
2019-01-27T06:18:58.906Z,31.46
2019-01-27T06:20:08.224Z,31.46
2019-01-27T06:21:17.436Z,31.46
2019-01-27T06:22:26.560Z,31.46
2019-01-27T06:23:35.917Z,31.56
2019-01-27T06:24:45.585Z,31.56
2019-01-27T06:25:55.678Z,31.46
2019-01-27T06:27:04.797Z,31.46
2019-01-27T06:28:14.634Z,31.46
2019-01-27T06:29:23.724Z,31.46
2019-01-27T06:30:33.071Z,31.46
2019-01-27T06:31:42.725Z,31.46
2019-01-27T06:32:51.865Z,31.46
2019-01-27T06:34:01.234Z,31.46
2019-01-27T06:35:10.596Z,31.46
2019-01-27T06:36:19.936Z,31.46
2019-01-27T06:37:29.577Z,31.46
2019-01-27T06:38:39.176Z,31.56
2019-01-27T06:39:48.816Z,31.46
2019-01-27T06:40:57.959Z,31.46
2019-01-27T06:42:07.160Z,31.46
2019-01-27T06:43:16.267Z,31.46
2019-01-27T06:44:25.424Z,31.56
2019-01-27T06:45:34.713Z,31.46
2019-01-27T06:46:44.229Z,31.56
2019-01-27T06:47:53.872Z,31.46
2019-01-27T06:49:03.201Z,31.56
2019-01-27T06:50:12.757Z,31.37
2019-01-27T06:51:21.828Z,31.56
2019-01-27T06:52:31.430Z,31.56
2019-01-27T06:53:40.838Z,31.56
2019-01-27T06:54:50.137Z,31.56
2019-01-27T06:55:58.976Z,31.56
2019-01-27T06:57:08.099Z,31.46
2019-01-27T06:58:17.264Z,31.56
2019-01-27T06:59:26.720Z,31.37
2019-01-27T07:00:36.036Z,31.46
2019-01-27T07:01:45.851Z,31.46
2019-01-27T07:02:55.488Z,31.56
2019-01-27T07:04:04.941Z,31.56
2019-01-27T07:05:14.025Z,31.46
2019-01-27T07:06:23.298Z,31.56
2019-01-27T07:07:32.565Z,31.46
2019-01-27T07:08:42.111Z,31.46
2019-01-27T07:09:51.461Z,31.56
2019-01-27T07:11:00.534Z,31.37
2019-01-27T07:12:10.446Z,31.56
2019-01-27T07:13:19.435Z,31.65
2019-01-27T07:14:29.243Z,31.56
2019-01-27T07:15:38.297Z,31.46
2019-01-27T07:16:47.592Z,31.46
2019-01-27T07:17:56.950Z,31.46
2019-01-27T07:19:06.238Z,31.65
2019-01-27T07:20:15.596Z,31.56
2019-01-27T07:21:25.130Z,31.46
2019-01-27T07:22:34.540Z,31.65
2019-01-27T07:23:43.892Z,31.46
2019-01-27T07:24:53.198Z,31.65
2019-01-27T07:26:02.592Z,31.56
2019-01-27T07:27:11.935Z,31.56
2019-01-27T07:28:21.099Z,31.65
2019-01-27T07:29:30.406Z,31.65
2019-01-27T07:30:40.342Z,31.56
2019-01-27T07:31:49.694Z,31.56
2019-01-27T07:32:59.499Z,31.65
2019-01-27T07:34:09.337Z,31.65
2019-01-27T07:35:19.208Z,31.56
2019-01-27T07:36:28.218Z,31.65
2019-01-27T07:37:37.317Z,31.65
2019-01-27T07:38:46.853Z,31.56
2019-01-27T07:39:56.410Z,31.46
2019-01-27T07:41:05.705Z,31.56
2019-01-27T07:42:15.291Z,31.56
2019-01-27T07:43:24.079Z,31.56
2019-01-27T07:44:33.067Z,31.56
2019-01-27T07:45:42.361Z,31.56
2019-01-27T07:46:51.925Z,31.56
2019-01-27T07:48:01.060Z,31.65
2019-01-27T07:49:10.579Z,31.46
2019-01-27T07:50:19.643Z,31.65
2019-01-27T07:51:29.457Z,31.56
2019-01-27T07:52:38.980Z,31.56
2019-01-27T07:53:47.991Z,31.56
2019-01-27T07:54:57.088Z,31.46
2019-01-27T07:56:06.413Z,31.56
2019-01-27T07:57:17.022Z,31.56
2019-01-27T07:58:26.324Z,31.56
2019-01-27T07:59:35.106Z,31.56
2019-01-27T08:00:44.408Z,31.56
2019-01-27T08:01:53.764Z,31.56
2019-01-27T08:03:03.307Z,31.56
2019-01-27T08:04:19.459Z,31.56
2019-01-27T08:05:28.699Z,31.56
2019-01-27T08:06:37.960Z,31.56
2019-01-27T08:07:47.546Z,31.56
2019-01-27T08:08:56.871Z,31.56
2019-01-27T08:10:05.697Z,31.56
2019-01-27T08:11:14.965Z,31.56
2019-01-27T08:12:24.261Z,31.65
2019-01-27T08:13:33.804Z,31.56
2019-01-27T08:14:43.915Z,31.56
2019-01-27T08:15:53.224Z,31.56
2019-01-27T08:17:03.599Z,31.65
2019-01-27T08:18:12.916Z,31.56
2019-01-27T08:19:22.506Z,31.56
2019-01-27T08:20:31.336Z,31.56
2019-01-27T08:21:40.342Z,31.56
2019-01-27T08:22:50.009Z,31.56
2019-01-27T08:23:59.649Z,31.56
2019-01-27T08:25:08.400Z,31.56
2019-01-27T08:26:17.720Z,31.56
2019-01-27T08:27:26.503Z,31.56
2019-01-27T08:28:36.337Z,31.56
2019-01-27T08:29:45.587Z,31.56
2019-01-27T08:30:55.134Z,31.56
2019-01-27T08:32:04.728Z,31.56
2019-01-27T08:33:14.251Z,31.56
2019-01-27T08:34:23.712Z,31.56
2019-01-27T08:35:32.988Z,31.56
2019-01-27T08:36:42.263Z,31.56
2019-01-27T08:37:51.401Z,31.56
2019-01-27T08:39:00.758Z,31.54
2019-01-27T08:40:10.097Z,31.56
2019-01-27T08:41:19.120Z,31.46
2019-01-27T08:42:28.783Z,31.56
2019-01-27T08:43:38.618Z,31.56
2019-01-27T08:44:48.164Z,31.56
2019-01-27T08:45:58.401Z,31.56
2019-01-27T08:47:07.417Z,31.56
2019-01-27T08:48:16.436Z,31.56
2019-01-27T08:49:25.460Z,31.56
2019-01-27T08:50:36.028Z,31.56
2019-01-27T08:51:45.851Z,31.65
2019-01-27T08:52:55.172Z,31.65
2019-01-27T08:54:04.434Z,31.46
2019-01-27T08:55:13.778Z,31.56
2019-01-27T08:56:23.601Z,31.56
2019-01-27T08:57:33.398Z,31.56
2019-01-27T08:58:42.689Z,31.56
2019-01-27T08:59:52.282Z,31.56
2019-01-27T09:01:01.863Z,31.65
2019-01-27T09:02:10.920Z,31.65
2019-01-27T09:03:20.526Z,31.54
2019-01-27T09:04:30.060Z,31.56
2019-01-27T09:05:39.658Z,31.65
2019-01-27T09:06:48.639Z,31.56
2019-01-27T09:07:58.409Z,31.56
2019-01-27T09:09:07.714Z,31.65
2019-01-27T09:10:16.723Z,31.56
2019-01-27T09:11:26.011Z,31.54
2019-01-27T09:12:35.611Z,31.54
2019-01-27T09:13:44.887Z,31.56
2019-01-27T09:14:54.266Z,31.56
2019-01-27T09:16:03.553Z,31.54
2019-01-27T09:17:13.343Z,31.46
2019-01-27T09:18:22.674Z,31.45
2019-01-27T09:19:32.210Z,31.56
2019-01-27T09:20:41.224Z,31.54
2019-01-27T09:21:50.516Z,31.54
2019-01-27T09:22:59.841Z,31.56
2019-01-27T09:24:09.087Z,31.56
2019-01-27T09:25:18.377Z,31.54
2019-01-27T09:26:27.677Z,31.56
2019-01-27T09:27:36.741Z,31.46
2019-01-27T09:28:46.274Z,31.56
2019-01-27T09:29:55.328Z,31.65
2019-01-27T09:31:04.722Z,31.54
2019-01-27T09:32:13.717Z,31.54
2019-01-27T09:33:23.558Z,31.56
2019-01-27T09:34:32.884Z,31.56
2019-01-27T09:35:42.223Z,31.56
2019-01-27T09:36:51.754Z,31.64
2019-01-27T09:38:00.887Z,31.54
2019-01-27T09:39:10.437Z,31.56
2019-01-27T09:40:19.736Z,31.56
2019-01-27T09:41:28.535Z,31.46
2019-01-27T09:42:38.694Z,31.56
2019-01-27T09:43:50.162Z,31.46
2019-01-27T09:44:59.705Z,31.56
2019-01-27T09:46:13.796Z,31.56
2019-01-27T09:47:23.140Z,31.56
2019-01-27T09:48:32.538Z,31.45
2019-01-27T09:49:42.316Z,31.56
2019-01-27T09:50:51.896Z,31.54
2019-01-27T09:52:01.678Z,31.54
2019-01-27T09:53:11.456Z,31.46
2019-01-27T09:54:20.738Z,31.56
2019-01-27T09:55:29.984Z,31.54
2019-01-27T09:56:39.008Z,31.65
2019-01-27T09:57:48.255Z,31.54
2019-01-27T09:58:57.645Z,31.54
2019-01-27T10:00:06.985Z,31.54
2019-01-27T10:01:16.266Z,31.45
2019-01-27T10:02:25.582Z,31.54
2019-01-27T10:03:42.227Z,31.64
2019-01-27T10:04:51.517Z,31.64
2019-01-27T10:06:00.730Z,31.64
2019-01-27T10:07:09.984Z,31.54
2019-01-27T10:08:18.712Z,31.54
2019-01-27T10:09:28.045Z,31.54
2019-01-27T10:10:37.403Z,31.54
2019-01-27T10:11:46.684Z,31.64
2019-01-27T10:12:56.256Z,31.64
2019-01-27T10:14:06.011Z,31.54
2019-01-27T10:15:15.971Z,31.45
2019-01-27T10:16:25.580Z,31.45
2019-01-27T10:17:34.852Z,31.54
2019-01-27T10:18:44.188Z,31.54
2019-01-27T10:19:53.273Z,31.54
2019-01-27T10:21:02.805Z,31.64
2019-01-27T10:22:12.044Z,31.54
2019-01-27T10:23:21.641Z,31.37
2019-01-27T10:24:31.724Z,31.27
2019-01-27T10:25:41.091Z,31.27
2019-01-27T10:26:50.660Z,31.18
2019-01-27T10:27:59.974Z,30.98
2019-01-27T10:29:10.598Z,30.69
2019-01-27T10:30:19.722Z,30.69
2019-01-27T10:31:29.809Z,30.61
2019-01-27T10:32:38.643Z,30.42
2019-01-27T10:33:47.943Z,30.42
2019-01-27T10:34:57.537Z,30.13
2019-01-27T10:36:06.902Z,29.94
2019-01-27T10:37:16.231Z,30.32
2019-01-27T10:38:25.789Z,29.95
2019-01-27T10:39:35.223Z,29.86
2019-01-27T10:40:44.668Z,29.86
2019-01-27T10:41:54.067Z,29.95
2019-01-27T10:43:03.974Z,29.47
2019-01-27T10:44:13.336Z,29.47
2019-01-27T10:45:22.489Z,29.57
2019-01-27T10:46:31.442Z,29.58
2019-01-27T10:47:41.171Z,29.38
2019-01-27T10:48:51.421Z,29.49
2019-01-27T10:50:01.030Z,29.68
2019-01-27T10:51:10.587Z,29.2
2019-01-27T10:52:20.305Z,29.29
2019-01-27T10:53:36.957Z,29.1
2019-01-27T10:54:46.319Z,29.29
2019-01-27T10:55:55.915Z,29
2019-01-27T10:57:05.508Z,29.2
2019-01-27T10:58:14.937Z,29.2
2019-01-27T10:59:24.307Z,29.21
2019-01-27T11:00:33.970Z,29.31
2019-01-27T11:01:43.530Z,29.31
2019-01-27T11:02:53.160Z,29.29
2019-01-27T11:04:03.103Z,29.31
2019-01-27T11:05:12.460Z,29.31
2019-01-27T11:06:21.786Z,29.5
2019-01-27T11:07:31.317Z,29.5
2019-01-27T11:08:40.635Z,29.41
2019-01-27T11:09:50.221Z,29.31
2019-01-27T11:11:00.505Z,29.31
2019-01-27T11:12:10.187Z,29.31
2019-01-27T11:13:19.532Z,29.11
2019-01-27T11:14:28.621Z,29.21
2019-01-27T11:15:37.956Z,29.31
2019-01-27T11:16:47.065Z,29.11
2019-01-27T11:17:56.880Z,29.21
2019-01-27T11:19:06.432Z,29.21
2019-01-27T11:20:15.520Z,29.41
2019-01-27T11:21:25.395Z,29.41
2019-01-27T11:22:35.581Z,29.31
2019-01-27T11:23:44.655Z,29.41
2019-01-27T11:24:54.335Z,29.41
2019-01-27T11:26:04.367Z,29.41
2019-01-27T11:27:13.662Z,29.5
2019-01-27T11:28:23.508Z,29.41
2019-01-27T11:29:33.347Z,29.5
2019-01-27T11:30:42.934Z,29.21
2019-01-27T11:31:52.185Z,29.41
2019-01-27T11:33:02.545Z,29.21
2019-01-27T11:34:12.217Z,29.21
2019-01-27T11:35:23.542Z,29.02
2019-01-27T11:36:32.682Z,29.11
2019-01-27T11:37:41.957Z,29.22
2019-01-27T11:38:51.356Z,29.22
2019-01-27T11:40:01.092Z,29.22
2019-01-27T11:41:10.398Z,29.13
2019-01-27T11:42:19.541Z,29.32
2019-01-27T11:43:30.231Z,29.22
2019-01-27T11:44:39.622Z,29.32
2019-01-27T11:45:49.105Z,29.32
2019-01-27T11:46:58.686Z,29.32
2019-01-27T11:48:08.146Z,29.22
2019-01-27T11:49:17.806Z,29.32
2019-01-27T11:50:27.375Z,29.22
2019-01-27T11:51:36.177Z,29.32
2019-01-27T11:52:45.261Z,29.32
2019-01-27T11:53:54.633Z,29.52
2019-01-27T11:55:04.489Z,28.85
2019-01-27T11:56:13.552Z,28.85
2019-01-27T11:57:22.919Z,29.05
2019-01-27T11:58:32.543Z,28.85
2019-01-27T11:59:41.804Z,28.95
2019-01-27T12:00:51.352Z,28.95
2019-01-27T12:02:00.999Z,28.95
2019-01-27T12:03:10.615Z,28.85
2019-01-27T12:04:20.170Z,28.95
2019-01-27T12:05:29.283Z,28.95
2019-01-27T12:06:38.752Z,28.95
2019-01-27T12:07:47.831Z,29.05
2019-01-27T12:08:56.851Z,28.95
2019-01-27T12:10:06.789Z,29.05
2019-01-27T12:11:16.114Z,29.05
2019-01-27T12:12:26.065Z,28.95
2019-01-27T12:13:35.180Z,28.95
2019-01-27T12:14:44.395Z,28.95
2019-01-27T12:15:54.137Z,29.05
2019-01-27T12:17:03.999Z,29.05
2019-01-27T12:18:13.332Z,29.05
2019-01-27T12:19:23.037Z,29.14
2019-01-27T12:20:32.689Z,29.05
2019-01-27T12:21:42.080Z,29.05
2019-01-27T12:22:51.953Z,29.14
2019-01-27T12:24:02.079Z,29.05
2019-01-27T12:25:12.020Z,29.14
2019-01-27T12:26:21.476Z,29.05
2019-01-27T12:27:31.206Z,28.95
2019-01-27T12:28:40.017Z,28.95
2019-01-27T12:29:49.752Z,29.06
2019-01-27T12:30:59.364Z,29.06
2019-01-27T12:32:09.236Z,29.06
2019-01-27T12:33:19.447Z,29.16
2019-01-27T12:34:29.000Z,29.06
2019-01-27T12:35:38.707Z,29.16
2019-01-27T12:36:48.035Z,29.16
2019-01-27T12:37:57.789Z,29.06
2019-01-27T12:39:07.518Z,28.97
2019-01-27T12:40:17.342Z,29.06
2019-01-27T12:41:26.495Z,29.06
2019-01-27T12:42:36.229Z,28.97
2019-01-27T12:43:45.963Z,28.97
2019-01-27T12:44:55.343Z,28.87
2019-01-27T12:46:04.882Z,28.97
2019-01-27T12:47:14.323Z,28.87
2019-01-27T12:48:25.697Z,28.87
2019-01-27T12:49:35.158Z,28.97
2019-01-27T12:50:44.277Z,28.87
2019-01-27T12:51:53.506Z,28.97
2019-01-27T12:53:03.513Z,28.97
2019-01-27T12:54:12.764Z,29.06
2019-01-27T12:55:22.234Z,28.87
2019-01-27T12:56:31.721Z,28.97
2019-01-27T12:57:40.944Z,28.87
2019-01-27T12:58:50.431Z,29.55
2019-01-27T13:00:00.255Z,29.36
2019-01-27T13:01:09.408Z,29.45
2019-01-27T13:02:18.653Z,29.46
2019-01-27T13:03:27.962Z,29.36
2019-01-27T13:04:37.294Z,29.36
2019-01-27T13:05:47.199Z,29.35
2019-01-27T13:06:56.667Z,29.25
2019-01-27T13:08:06.394Z,29.17
2019-01-27T13:09:16.243Z,29.17
2019-01-27T13:10:25.473Z,29.27
2019-01-27T13:11:34.754Z,29.36
2019-01-27T13:12:44.203Z,29.27
2019-01-27T13:13:53.798Z,29.36
2019-01-27T13:15:02.973Z,29.17
2019-01-27T13:16:12.902Z,29.17
2019-01-27T13:17:22.031Z,29.46
2019-01-27T13:18:31.731Z,29.46
2019-01-27T13:19:41.736Z,29.27
2019-01-27T13:20:56.779Z,29.27
2019-01-27T13:22:06.603Z,29.36
2019-01-27T13:23:19.308Z,29.27
2019-01-27T13:24:28.461Z,29.27
2019-01-27T13:25:38.153Z,29.27
2019-01-27T13:26:47.695Z,29.17
2019-01-27T13:27:57.223Z,29.46
2019-01-27T13:29:06.472Z,29.46
2019-01-27T13:30:15.561Z,29.27
2019-01-27T13:31:25.460Z,29.46
2019-01-27T13:32:34.788Z,29.36
2019-01-27T13:33:44.391Z,29.36
2019-01-27T13:34:56.238Z,29.46
2019-01-27T13:36:06.140Z,29.46
2019-01-27T13:37:15.947Z,29.36
2019-01-27T13:38:24.924Z,29.36
2019-01-27T13:39:34.676Z,29.46
2019-01-27T13:40:44.146Z,29.17
2019-01-27T13:41:54.526Z,29.46
2019-01-27T13:43:04.364Z,29.46
2019-01-27T13:44:13.423Z,29.56
2019-01-27T13:45:23.846Z,29.46
2019-01-27T13:46:33.378Z,29.56
2019-01-27T13:47:42.686Z,29.46
2019-01-27T13:48:52.048Z,29.46
2019-01-27T13:50:02.665Z,29.46
2019-01-27T13:51:13.774Z,29.36
2019-01-27T13:52:23.717Z,29.36
2019-01-27T13:53:32.926Z,29.27
2019-01-27T13:54:41.709Z,29.66
2019-01-27T13:55:50.861Z,29.27
2019-01-27T13:56:59.986Z,29.36
2019-01-27T13:58:10.132Z,29.36
2019-01-27T13:59:20.069Z,29.47
2019-01-27T14:00:29.202Z,29.27
2019-01-27T14:01:38.792Z,29.28
2019-01-27T14:02:47.944Z,29.36
2019-01-27T14:03:56.752Z,29.94
2019-01-27T14:05:06.487Z,29.67
2019-01-27T14:06:15.684Z,29.57
2019-01-27T14:07:24.979Z,29.66
2019-01-27T14:08:34.218Z,29.47
2019-01-27T14:09:43.734Z,29.46
2019-01-27T14:10:54.040Z,29.57
2019-01-27T14:12:03.954Z,29.75
2019-01-27T14:13:15.032Z,29.47
2019-01-27T14:14:25.157Z,29.67
2019-01-27T14:15:34.652Z,29.57
2019-01-27T14:16:44.222Z,29.46
2019-01-27T14:17:55.520Z,29.86
2019-01-27T14:19:05.254Z,29.85
2019-01-27T14:20:15.297Z,29.96
2019-01-27T14:21:24.830Z,29.77
2019-01-27T14:22:34.236Z,29.67
2019-01-27T14:23:43.250Z,29.77
2019-01-27T14:24:52.527Z,29.67
2019-01-27T14:26:02.216Z,29.77
2019-01-27T14:27:11.271Z,29.77
2019-01-27T14:28:20.315Z,29.77
2019-01-27T14:29:29.489Z,29.86
2019-01-27T14:30:38.332Z,29.57
2019-01-27T14:31:47.976Z,29.57
2019-01-27T14:32:57.299Z,29.57
2019-01-27T14:34:08.175Z,29.94
2019-01-27T14:35:17.851Z,29.96
2019-01-27T14:36:28.347Z,29.86
2019-01-27T14:37:37.628Z,29.86
2019-01-27T14:38:47.175Z,29.94
2019-01-27T14:39:57.518Z,29.86
2019-01-27T14:41:09.265Z,29.85
2019-01-27T14:42:19.222Z,29.96
2019-01-27T14:43:28.404Z,29.86
2019-01-27T14:44:38.089Z,29.96
2019-01-27T14:45:48.428Z,29.86
2019-01-27T14:46:58.488Z,29.86
2019-01-27T14:48:07.604Z,29.77
2019-01-27T14:49:17.009Z,29.96
2019-01-27T14:50:26.364Z,29.96
2019-01-27T14:51:36.976Z,29.86
2019-01-27T14:52:46.847Z,29.86
